createdAt,value
2024-04-25T00:00:14.071Z,95063.00
2024-04-25T00:01:14.217Z,95059.00
2024-04-25T00:02:14.320Z,95057.00
2024-04-25T00:03:14.380Z,95055.00
2024-04-25T00:04:14.537Z,95056.00
2024-04-25T00:05:14.690Z,95052.00
2024-04-25T00:06:14.683Z,95050.00
2024-04-25T00:07:14.781Z,95051.00
2024-04-25T00:08:14.911Z,95049.00
2024-04-25T00:09:14.968Z,95049.00
2024-04-25T00:10:15.197Z,95050.00
2024-04-25T00:11:15.236Z,95050.00
2024-04-25T00:12:15.298Z,95048.00
2024-04-25T00:13:15.383Z,95048.00
2024-04-25T00:14:15.517Z,95051.00
2024-04-25T00:15:15.591Z,95051.00
2024-04-25T00:16:15.700Z,95051.00
2024-04-25T00:17:15.821Z,95055.00
2024-04-25T00:18:15.935Z,95056.00
2024-04-25T00:19:16.013Z,95059.00
2024-04-25T00:20:16.131Z,95059.00
2024-04-25T00:21:16.217Z,95059.00
2024-04-25T00:22:16.321Z,95060.00
2024-04-25T00:23:16.438Z,95061.00
2024-04-25T00:24:16.520Z,95061.00
2024-04-25T00:25:16.660Z,95060.00
2024-04-25T00:26:16.761Z,95059.00
2024-04-25T00:27:16.807Z,95061.00
2024-04-25T00:28:16.907Z,95061.00
2024-04-25T00:29:17.070Z,95060.00
2024-04-25T00:30:17.122Z,95060.00
2024-04-25T00:31:17.235Z,95060.00
2024-04-25T00:32:17.351Z,95061.00
2024-04-25T00:33:17.498Z,95059.00
2024-04-25T00:34:17.538Z,95058.00
2024-04-25T00:35:17.672Z,95058.00
2024-04-25T00:36:17.734Z,95059.00
2024-04-25T00:37:17.845Z,95058.00
2024-04-25T00:38:17.990Z,95058.00
2024-04-25T00:39:18.047Z,95059.00
2024-04-25T00:40:18.144Z,95057.00
2024-04-25T00:41:18.296Z,95057.00
2024-04-25T00:42:18.336Z,95057.00
2024-04-25T00:43:18.446Z,95055.00
2024-04-25T00:44:18.596Z,95056.00
2024-04-25T00:45:18.656Z,95053.00
2024-04-25T00:46:18.762Z,95054.00
2024-04-25T00:47:18.937Z,95053.00
2024-04-25T00:48:19.058Z,95052.00
2024-04-25T00:49:19.075Z,95053.00
2024-04-25T00:50:19.186Z,95054.00
2024-04-25T00:51:19.275Z,95056.00
2024-04-25T00:52:19.400Z,95056.00
2024-04-25T00:53:19.568Z,95059.00
2024-04-25T00:54:19.592Z,95060.00
2024-04-25T00:55:19.824Z,95064.00
2024-04-25T00:56:19.860Z,95061.00
2024-04-25T00:57:19.907Z,95056.00
2024-04-25T00:58:20.003Z,95053.00
2024-04-25T00:59:20.147Z,95052.00
2024-04-25T01:00:20.225Z,95050.00
2024-04-25T01:01:20.341Z,95050.00
2024-04-25T01:02:20.513Z,95051.00
2024-04-25T01:03:20.563Z,95049.00
2024-04-25T01:04:20.666Z,95049.00
2024-04-25T01:05:20.775Z,95048.00
2024-04-25T01:06:20.862Z,95047.00
2024-04-25T01:07:20.963Z,95044.00
2024-04-25T01:08:21.100Z,95046.00
2024-04-25T01:09:21.186Z,95042.00
2024-04-25T01:10:21.298Z,95042.00
2024-04-25T01:11:21.475Z,95046.00
2024-04-25T01:12:21.498Z,95043.00
2024-04-25T01:13:21.639Z,95043.00
2024-04-25T01:14:21.733Z,95041.00
2024-04-25T01:15:21.810Z,95038.00
2024-04-25T01:16:21.963Z,95036.00
2024-04-25T01:17:22.075Z,95035.00
2024-04-25T01:18:22.780Z,95034.00
2024-04-25T01:19:22.252Z,95034.00
2024-04-25T01:20:22.375Z,95033.00
2024-04-25T01:21:22.477Z,95035.00
2024-04-25T01:22:22.553Z,95037.00
2024-04-25T01:23:22.715Z,95040.00
2024-04-25T01:24:22.773Z,95041.00
2024-04-25T01:25:22.888Z,95044.00
2024-04-25T01:26:23.048Z,95045.00
2024-04-25T01:27:23.094Z,95047.00
2024-04-25T01:28:23.202Z,95045.00
2024-04-25T01:29:23.336Z,95048.00
2024-04-25T01:30:23.420Z,95048.00
2024-04-25T01:31:23.525Z,95048.00
2024-04-25T01:32:23.679Z,95049.00
2024-04-25T01:33:23.810Z,95045.00
2024-04-25T01:34:23.859Z,95045.00
2024-04-25T01:35:24.013Z,95045.00
2024-04-25T01:36:24.122Z,95042.00
2024-04-25T01:37:24.190Z,95043.00
2024-04-25T01:38:24.347Z,95042.00
2024-04-25T01:39:24.411Z,95040.00
2024-04-25T01:40:24.575Z,95042.00
2024-04-25T01:41:24.753Z,95043.00
2024-04-25T01:42:24.764Z,95043.00
2024-04-25T01:43:24.901Z,95044.00
2024-04-25T01:44:25.030Z,95043.00
2024-04-25T01:45:25.090Z,95045.00
2024-04-25T01:46:25.214Z,95043.00
2024-04-25T01:47:25.460Z,95043.00
2024-04-25T01:48:25.623Z,95046.00
2024-04-25T01:49:25.566Z,95046.00
2024-04-25T01:50:25.727Z,95045.00
2024-04-25T01:51:25.786Z,95042.00
2024-04-25T01:52:25.905Z,95044.00
2024-04-25T01:53:26.052Z,95043.00
2024-04-25T01:54:26.150Z,95043.00
2024-04-25T01:55:26.289Z,95046.00
2024-04-25T01:56:26.424Z,95045.00
2024-04-25T01:57:26.481Z,95047.00
2024-04-25T01:58:26.593Z,95047.00
2024-04-25T01:59:26.691Z,95049.00
2024-04-25T02:00:26.811Z,95050.00
2024-04-25T02:01:27.670Z,95049.00
2024-04-25T02:02:27.075Z,95051.00
2024-04-25T02:03:27.129Z,95049.00
2024-04-25T02:04:27.207Z,95047.00
2024-04-25T02:05:27.322Z,95046.00
2024-04-25T02:06:27.467Z,95044.00
2024-04-25T02:07:27.468Z,95042.00
2024-04-25T02:08:27.627Z,95043.00
2024-04-25T02:09:27.682Z,95040.00
2024-04-25T02:10:32.812Z,95040.00
2024-04-25T02:11:27.785Z,95039.00
2024-04-25T02:12:27.741Z,95038.00
2024-04-25T02:13:27.782Z,95037.00
2024-04-25T02:14:27.753Z,95035.00
2024-04-25T02:15:27.791Z,95036.00
2024-04-25T02:16:27.779Z,95036.00
2024-04-25T02:17:27.866Z,95035.00
2024-04-25T02:18:27.978Z,95033.00
2024-04-25T02:19:27.854Z,95032.00
2024-04-25T02:20:28.019Z,95030.00
2024-04-25T02:21:27.966Z,95027.00
2024-04-25T02:22:28.036Z,95029.00
2024-04-25T02:23:28.101Z,95028.00
2024-04-25T02:24:28.126Z,95028.00
2024-04-25T02:25:33.218Z,95028.00
2024-04-25T02:26:28.251Z,95028.00
2024-04-25T02:27:28.177Z,95026.00
2024-04-25T02:28:28.203Z,95029.00
2024-04-25T02:29:28.229Z,95026.00
2024-04-25T02:30:33.203Z,95027.00
2024-04-25T02:31:28.172Z,95027.00
2024-04-25T02:32:28.276Z,95026.00
2024-04-25T02:33:28.255Z,95026.00
2024-04-25T02:34:28.219Z,95026.00
2024-04-25T02:35:28.237Z,95029.00
2024-04-25T02:36:28.176Z,95030.00
2024-04-25T02:37:28.204Z,95032.00
2024-04-25T02:38:28.237Z,95035.00
2024-04-25T02:39:28.222Z,95033.00
2024-04-25T02:40:28.251Z,95034.00
2024-04-25T02:41:28.268Z,95033.00
2024-04-25T02:42:28.238Z,95033.00
2024-04-25T02:43:28.221Z,95032.00
2024-04-25T02:44:28.274Z,95031.00
2024-04-25T02:45:28.273Z,95034.00
2024-04-25T02:46:28.341Z,95035.00
2024-04-25T02:47:28.459Z,95034.00
2024-04-25T02:48:28.545Z,95035.00
2024-04-25T02:49:28.549Z,95039.00
2024-04-25T02:50:28.628Z,95040.00
2024-04-25T02:51:28.623Z,95040.00
2024-04-25T02:52:28.676Z,95041.00
2024-04-25T02:53:28.753Z,95042.00
2024-04-25T02:54:28.806Z,95042.00
2024-04-25T02:55:28.897Z,95040.00
2024-04-25T02:56:28.990Z,95039.00
2024-04-25T02:57:28.991Z,95041.00
2024-04-25T02:58:29.044Z,95042.00
2024-04-25T02:59:29.129Z,95041.00
2024-04-25T03:00:39.256Z,95036.00
2024-04-25T03:01:29.184Z,95037.00
2024-04-25T03:02:29.379Z,95035.00
2024-04-25T03:03:29.245Z,95035.00
2024-04-25T03:04:29.169Z,95035.00
2024-04-25T03:05:29.248Z,95036.00
2024-04-25T03:06:29.194Z,95034.00
2024-04-25T03:07:29.160Z,95035.00
2024-04-25T03:08:29.212Z,95035.00
2024-04-25T03:09:29.176Z,95037.00
2024-04-25T03:10:29.181Z,95036.00
2024-04-25T03:11:29.232Z,95038.00
2024-04-25T03:12:29.192Z,95038.00
2024-04-25T03:13:29.177Z,95038.00
2024-04-25T03:14:29.277Z,95039.00
2024-04-25T03:15:29.178Z,95043.00
2024-04-25T03:16:29.196Z,95044.00
2024-04-25T03:17:29.258Z,95043.00
2024-04-25T03:18:29.234Z,95045.00
2024-04-25T03:19:29.191Z,95052.00
2024-04-25T03:20:29.210Z,95053.00
2024-04-25T03:21:29.196Z,95047.00
2024-04-25T03:22:29.202Z,95048.00
2024-04-25T03:23:29.199Z,95048.00
2024-04-25T03:24:29.174Z,95048.00
2024-04-25T03:25:29.200Z,95050.00
2024-04-25T03:26:29.216Z,95050.00
2024-04-25T03:27:29.205Z,95047.00
2024-04-25T03:28:29.178Z,95044.00
2024-04-25T03:29:29.196Z,95045.00
2024-04-25T03:30:29.183Z,95044.00
2024-04-25T03:31:29.192Z,95043.00
2024-04-25T03:32:29.298Z,95041.00
2024-04-25T03:33:29.282Z,95041.00
2024-04-25T03:34:29.231Z,95039.00
2024-04-25T03:35:29.342Z,95036.00
2024-04-25T03:36:29.379Z,95038.00
2024-04-25T03:37:29.465Z,95040.00
2024-04-25T03:38:29.534Z,95041.00
2024-04-25T03:39:29.593Z,95040.00
2024-04-25T03:40:29.656Z,95042.00
2024-04-25T03:41:29.768Z,95041.00
2024-04-25T03:42:29.805Z,95041.00
2024-04-25T03:43:29.874Z,95042.00
2024-04-25T03:44:30.007Z,95040.00
2024-04-25T03:45:30.022Z,95042.00
2024-04-25T03:46:30.098Z,95040.00
2024-04-25T03:47:30.259Z,95042.00
2024-04-25T03:48:30.429Z,95039.00
2024-04-25T03:49:30.338Z,95041.00
2024-04-25T03:50:30.414Z,95041.00
2024-04-25T03:51:30.498Z,95040.00
2024-04-25T03:52:30.555Z,95042.00
2024-04-25T03:53:30.654Z,95041.00
2024-04-25T03:54:30.691Z,95038.00
2024-04-25T03:55:30.780Z,95040.00
2024-04-25T03:56:30.860Z,95038.00
2024-04-25T03:57:30.924Z,95040.00
2024-04-25T03:58:30.991Z,95039.00
2024-04-25T03:59:31.108Z,95042.00
2024-04-25T04:00:31.171Z,95039.00
2024-04-25T04:01:31.242Z,95042.00
2024-04-25T04:02:31.480Z,95045.00
2024-04-25T04:03:31.427Z,95045.00
2024-04-25T04:04:31.462Z,95045.00
2024-04-25T04:05:31.608Z,95048.00
2024-04-25T04:06:31.633Z,95046.00
2024-04-25T04:07:31.730Z,95048.00
2024-04-25T04:08:31.851Z,95048.00
2024-04-25T04:09:31.921Z,95051.00
2024-04-25T04:10:32.001Z,95048.00
2024-04-25T04:11:32.184Z,95049.00
2024-04-25T04:12:32.182Z,95047.00
2024-04-25T04:13:32.258Z,95045.00
2024-04-25T04:14:32.401Z,95049.00
2024-04-25T04:15:32.442Z,95048.00
2024-04-25T04:16:32.591Z,95048.00
2024-04-25T04:17:32.706Z,95049.00
2024-04-25T04:18:32.715Z,95049.00
2024-04-25T04:19:32.737Z,95051.00
2024-04-25T04:20:32.840Z,95052.00
2024-04-25T04:21:32.955Z,95052.00
2024-04-25T04:22:33.007Z,95052.00
2024-04-25T04:23:33.116Z,95051.00
2024-04-25T04:24:33.171Z,95053.00
2024-04-25T04:25:33.286Z,95052.00
2024-04-25T04:26:33.419Z,95054.00
2024-04-25T04:27:33.491Z,95055.00
2024-04-25T04:28:33.570Z,95058.00
2024-04-25T04:29:33.782Z,95058.00
2024-04-25T04:30:33.753Z,95060.00
2024-04-25T04:31:33.838Z,95059.00
2024-04-25T04:32:34.142Z,95061.00
2024-04-25T04:33:41.778Z,95063.00
2024-04-25T04:34:41.473Z,95061.00
2024-04-25T04:35:41.450Z,95062.00
2024-04-25T04:36:41.496Z,95063.00
2024-04-25T04:37:41.496Z,95060.00
2024-04-25T04:38:41.542Z,95063.00
2024-04-25T04:39:41.502Z,95069.00
2024-04-25T04:40:41.524Z,95069.00
2024-04-25T04:41:41.551Z,95068.00
2024-04-25T04:42:41.514Z,95068.00
2024-04-25T04:43:41.592Z,95067.00
2024-04-25T04:44:41.737Z,95067.00
2024-04-25T04:45:48.274Z,95063.00
2024-04-25T04:46:41.759Z,95065.00
2024-04-25T04:47:41.802Z,95066.00
2024-04-25T04:48:41.868Z,95068.00
2024-04-25T04:49:41.745Z,95068.00
2024-04-25T04:50:41.770Z,95069.00
2024-04-25T04:51:42.220Z,95069.00
2024-04-25T04:52:41.756Z,95068.00
2024-04-25T04:53:41.767Z,95069.00
2024-04-25T04:54:41.770Z,95071.00
2024-04-25T04:55:43.263Z,95070.00
2024-04-25T04:56:41.789Z,95071.00
2024-04-25T04:57:41.774Z,95071.00
2024-04-25T04:58:41.786Z,95071.00
2024-04-25T04:59:41.809Z,95073.00
2024-04-25T05:00:41.829Z,95073.00
2024-04-25T05:01:41.807Z,95074.00
2024-04-25T05:02:41.836Z,95077.00
2024-04-25T05:03:41.890Z,95075.00
2024-04-25T05:04:41.805Z,95076.00
2024-04-25T05:05:41.835Z,95078.00
2024-04-25T05:06:41.776Z,95078.00
2024-04-25T05:07:41.787Z,95080.00
2024-04-25T05:08:41.864Z,95081.00
2024-04-25T05:09:41.776Z,95081.00
2024-04-25T05:10:41.886Z,95080.00
2024-04-25T05:11:42.097Z,95083.00
2024-04-25T05:12:42.109Z,95083.00
2024-04-25T05:13:42.234Z,95082.00
2024-04-25T05:14:42.403Z,95081.00
2024-04-25T05:15:43.303Z,95080.00
2024-04-25T05:16:42.699Z,95080.00
2024-04-25T05:17:42.763Z,95081.00
2024-04-25T05:18:42.883Z,95082.00
2024-04-25T05:19:42.952Z,95080.00
2024-04-25T05:20:43.088Z,95082.00
2024-04-25T05:21:43.147Z,95081.00
2024-04-25T05:22:43.268Z,95082.00
2024-04-25T05:23:44.127Z,95083.00
2024-04-25T05:24:43.415Z,95081.00
2024-04-25T05:25:43.477Z,95084.00
2024-04-25T05:26:43.513Z,95083.00
2024-04-25T05:27:43.523Z,95084.00
2024-04-25T05:28:43.533Z,95085.00
2024-04-25T05:29:43.598Z,95085.00
2024-04-25T05:30:43.625Z,95087.00
2024-04-25T05:31:43.731Z,95085.00
2024-04-25T05:32:43.887Z,95085.00
2024-04-25T05:33:43.991Z,95085.00
2024-04-25T05:34:44.029Z,95084.00
2024-04-25T05:35:44.249Z,95083.00
2024-04-25T05:36:44.216Z,95084.00
2024-04-25T05:37:44.288Z,95084.00
2024-04-25T05:38:44.509Z,95087.00
2024-04-25T05:39:44.503Z,95087.00
2024-04-25T05:40:44.630Z,95086.00
2024-04-25T05:41:44.746Z,95086.00
2024-04-25T05:42:44.802Z,95088.00
2024-04-25T05:43:44.913Z,95087.00
2024-04-25T05:44:45.025Z,95087.00
2024-04-25T05:45:45.097Z,95083.00
2024-04-25T05:46:45.207Z,95087.00
2024-04-25T05:47:45.340Z,95089.00
2024-04-25T05:48:45.430Z,95088.00
2024-04-25T05:49:45.482Z,95088.00
2024-04-25T05:50:45.665Z,95090.00
2024-04-25T05:51:45.711Z,95091.00
2024-04-25T05:52:45.823Z,95091.00
2024-04-25T05:53:46.028Z,95091.00
2024-04-25T05:54:46.030Z,95091.00
2024-04-25T05:55:46.728Z,95091.00
2024-04-25T05:56:46.200Z,95093.00
2024-04-25T05:57:46.230Z,95093.00
2024-04-25T05:58:46.270Z,95091.00
2024-04-25T05:59:46.326Z,95090.00
2024-04-25T06:00:46.362Z,95088.00
2024-04-25T06:01:46.400Z,95091.00
2024-04-25T06:02:46.414Z,95092.00
2024-04-25T06:03:46.543Z,95093.00
2024-04-25T06:04:46.636Z,95094.00
2024-04-25T06:05:46.716Z,95093.00
2024-04-25T06:06:46.775Z,95095.00
2024-04-25T06:07:46.876Z,95096.00
2024-04-25T06:08:47.026Z,95090.00
2024-04-25T06:09:47.131Z,95087.00
2024-04-25T06:10:47.232Z,95086.00
2024-04-25T06:11:47.550Z,95086.00
2024-04-25T06:12:47.526Z,95086.00
2024-04-25T06:13:47.518Z,95086.00
2024-04-25T06:14:47.672Z,95085.00
2024-04-25T06:15:47.692Z,95088.00
2024-04-25T06:16:47.778Z,95086.00
2024-04-25T06:17:47.925Z,95086.00
2024-04-25T06:18:47.924Z,95086.00
2024-04-25T06:19:48.003Z,95088.00
2024-04-25T06:20:48.171Z,95087.00
2024-04-25T06:21:48.162Z,95085.00
2024-04-25T06:22:48.268Z,95086.00
2024-04-25T06:23:48.438Z,95087.00
2024-04-25T06:24:48.317Z,95088.00
2024-04-25T06:25:48.390Z,95090.00
2024-04-25T06:26:48.496Z,95089.00
2024-04-25T06:27:48.651Z,95090.00
2024-04-25T06:28:48.590Z,95090.00
2024-04-25T06:29:48.748Z,95091.00
2024-04-25T06:30:48.714Z,95092.00
2024-04-25T06:31:49.009Z,95093.00
2024-04-25T06:32:48.978Z,95095.00
2024-04-25T06:33:48.920Z,95092.00
2024-04-25T06:34:48.972Z,95090.00
2024-04-25T06:35:49.133Z,95089.00
2024-04-25T06:36:49.085Z,95089.00
2024-04-25T06:37:49.143Z,95090.00
2024-04-25T06:38:49.214Z,95091.00
2024-04-25T06:39:49.283Z,95091.00
2024-04-25T06:40:49.319Z,95091.00
2024-04-25T06:41:54.190Z,95091.00
2024-04-25T06:42:50.395Z,95092.00
2024-04-25T06:43:49.346Z,95089.00
2024-04-25T06:44:53.312Z,95089.00
2024-04-25T06:45:49.352Z,95089.00
2024-04-25T06:46:49.360Z,95085.00
2024-04-25T06:47:49.486Z,95084.00
2024-04-25T06:48:51.929Z,95085.00
2024-04-25T06:49:49.370Z,95085.00
2024-04-25T06:50:49.411Z,95082.00
2024-04-25T06:51:49.368Z,95082.00
2024-04-25T06:52:49.363Z,95084.00
2024-04-25T06:53:49.421Z,95084.00
2024-04-25T06:54:49.359Z,95084.00
2024-04-25T06:55:49.363Z,95084.00
2024-04-25T06:56:49.388Z,95087.00
2024-04-25T06:57:49.378Z,95080.00
2024-04-25T06:58:49.356Z,95075.00
2024-04-25T06:59:49.433Z,95074.00
2024-04-25T07:00:49.415Z,95069.00
2024-04-25T07:01:49.428Z,95067.00
2024-04-25T07:02:49.404Z,95069.00
2024-04-25T07:03:49.418Z,95073.00
2024-04-25T07:04:49.402Z,95071.00
2024-04-25T07:05:49.722Z,95077.00
2024-04-25T07:06:49.403Z,95072.00
2024-04-25T07:07:49.420Z,95072.00
2024-04-25T07:08:49.438Z,95069.00
2024-04-25T07:09:49.383Z,95070.00
2024-04-25T07:10:49.475Z,95071.00
2024-04-25T07:11:49.456Z,95068.00
2024-04-25T07:12:49.410Z,95069.00
2024-04-25T07:13:49.457Z,95072.00
2024-04-25T07:14:49.449Z,95073.00
2024-04-25T07:15:49.401Z,95074.00
2024-04-25T07:16:49.447Z,95076.00
2024-04-25T07:17:49.616Z,95077.00
2024-04-25T07:18:49.444Z,95076.00
2024-04-25T07:19:49.395Z,95077.00
2024-04-25T07:20:49.467Z,95078.00
2024-04-25T07:21:49.415Z,95078.00
2024-04-25T07:22:49.426Z,95078.00
2024-04-25T07:23:49.427Z,95078.00
2024-04-25T07:24:49.404Z,95079.00
2024-04-25T07:25:49.412Z,95079.00
2024-04-25T07:26:49.459Z,95080.00
2024-04-25T07:27:49.451Z,95078.00
2024-04-25T07:28:49.401Z,95079.00
2024-04-25T07:29:49.473Z,95077.00
2024-04-25T07:30:49.418Z,95078.00
2024-04-25T07:31:49.417Z,95078.00
2024-04-25T07:32:49.556Z,95078.00
2024-04-25T07:33:49.650Z,95076.00
2024-04-25T07:34:49.647Z,95076.00
2024-04-25T07:35:49.788Z,95073.00
2024-04-25T07:36:49.783Z,95069.00
2024-04-25T07:37:49.869Z,95070.00
2024-04-25T07:38:50.045Z,95072.00
2024-04-25T07:39:50.049Z,95071.00
2024-04-25T07:40:50.160Z,95071.00
2024-04-25T07:41:50.297Z,95071.00
2024-04-25T07:42:50.340Z,95070.00
2024-04-25T07:43:50.498Z,95069.00
2024-04-25T07:44:50.556Z,95069.00
2024-04-25T07:45:50.662Z,95068.00
2024-04-25T07:46:50.703Z,95066.00
2024-04-25T07:47:50.970Z,95067.00
2024-04-25T07:48:50.902Z,95068.00
2024-04-25T07:49:50.925Z,95063.00
2024-04-25T07:50:51.139Z,95063.00
2024-04-25T07:51:51.090Z,95062.00
2024-04-25T07:52:51.150Z,95063.00
2024-04-25T07:53:51.301Z,95060.00
2024-04-25T07:54:51.268Z,95060.00
2024-04-25T07:55:51.363Z,95059.00
2024-04-25T07:56:51.470Z,95057.00
2024-04-25T07:57:51.492Z,95057.00
2024-04-25T07:58:51.573Z,95059.00
2024-04-25T07:59:51.725Z,95056.00
2024-04-25T08:00:51.800Z,95056.00
2024-04-25T08:01:51.825Z,95055.00
2024-04-25T08:02:52.025Z,95055.00
2024-04-25T08:03:51.990Z,95053.00
2024-04-25T08:04:52.149Z,95053.00
2024-04-25T08:05:52.370Z,95053.00
2024-04-25T08:06:52.261Z,95051.00
2024-04-25T08:07:52.333Z,95053.00
2024-04-25T08:08:52.493Z,95050.00
2024-04-25T08:09:52.498Z,95051.00
2024-04-25T08:10:52.617Z,95051.00
2024-04-25T08:11:52.673Z,95051.00
2024-04-25T08:12:52.741Z,95051.00
2024-04-25T08:13:52.823Z,95049.00
2024-04-25T08:14:52.953Z,95051.00
2024-04-25T08:15:53.025Z,95049.00
2024-04-25T08:16:53.068Z,95049.00
2024-04-25T08:17:53.331Z,95049.00
2024-04-25T08:18:53.247Z,95046.00
2024-04-25T08:19:53.323Z,95049.00
2024-04-25T08:20:53.439Z,95048.00
2024-04-25T08:21:53.504Z,95046.00
2024-04-25T08:22:53.607Z,95046.00
2024-04-25T08:23:53.750Z,95047.00
2024-04-25T08:24:53.776Z,95049.00
2024-04-25T08:25:53.896Z,95048.00
2024-04-25T08:26:54.051Z,95047.00
2024-04-25T08:27:54.054Z,95044.00
2024-04-25T08:28:54.159Z,95043.00
2024-04-25T08:29:54.237Z,95041.00
2024-04-25T08:30:54.316Z,95042.00
2024-04-25T08:31:54.446Z,95039.00
2024-04-25T08:32:54.716Z,95038.00
2024-04-25T08:33:54.785Z,95039.00
2024-04-25T08:34:54.710Z,95039.00
2024-04-25T08:35:54.808Z,95037.00
2024-04-25T08:36:54.865Z,95038.00
2024-04-25T08:37:54.948Z,95036.00
2024-04-25T08:38:55.088Z,95037.00
2024-04-25T08:39:55.197Z,95036.00
2024-04-25T08:40:55.290Z,95035.00
2024-04-25T08:41:55.349Z,95035.00
2024-04-25T08:42:55.435Z,95038.00
2024-04-25T08:43:55.541Z,95036.00
2024-04-25T08:44:55.694Z,95035.00
2024-04-25T08:45:55.720Z,95036.00
2024-04-25T08:46:55.852Z,95035.00
2024-04-25T08:47:56.045Z,95034.00
2024-04-25T08:48:56.045Z,95034.00
2024-04-25T08:49:56.148Z,95034.00
2024-04-25T08:50:56.358Z,95030.00
2024-04-25T08:51:56.337Z,95032.00
2024-04-25T08:52:56.411Z,95031.00
2024-04-25T08:53:56.519Z,95029.00
2024-04-25T08:54:56.590Z,95030.00
2024-04-25T08:55:56.694Z,95029.00
2024-04-25T08:56:56.810Z,95024.00
2024-04-25T08:57:56.937Z,95024.00
2024-04-25T08:58:56.991Z,95023.00
2024-04-25T08:59:57.106Z,95024.00
2024-04-25T09:00:57.190Z,95022.00
2024-04-25T09:01:57.224Z,95021.00
2024-04-25T09:02:57.476Z,95020.00
2024-04-25T09:03:57.429Z,95019.00
2024-04-25T09:05:04.740Z,95019.00
2024-04-25T09:06:04.675Z,95019.00
2024-04-25T09:07:04.650Z,95021.00
2024-04-25T09:08:04.638Z,95019.00
2024-04-25T09:09:04.643Z,95018.00
2024-04-25T09:10:04.645Z,95019.00
2024-04-25T09:11:04.650Z,95019.00
2024-04-25T09:13:04.670Z,95017.00
2024-04-25T09:14:04.653Z,95019.00
2024-04-25T09:15:04.646Z,95019.00
2024-04-25T09:16:04.726Z,95021.00
2024-04-25T09:17:04.723Z,95021.00
2024-04-25T09:18:04.927Z,95019.00
2024-04-25T09:19:04.787Z,95017.00
2024-04-25T09:20:04.839Z,95016.00
2024-04-25T09:21:04.892Z,95015.00
2024-04-25T09:22:05.015Z,95012.00
2024-04-25T09:23:06.681Z,95014.00
2024-04-25T09:24:05.051Z,95014.00
2024-04-25T09:25:05.135Z,95013.00
2024-04-25T09:26:05.128Z,95012.00
2024-04-25T09:27:05.161Z,95012.00
2024-04-25T09:28:05.170Z,95011.00
2024-04-25T09:29:05.182Z,95012.00
2024-04-25T09:30:05.243Z,95011.00
2024-04-25T09:31:05.267Z,95008.00
2024-04-25T09:32:05.268Z,95007.00
2024-04-25T09:33:05.470Z,95008.00
2024-04-25T09:34:05.498Z,95006.00
2024-04-25T09:35:06.407Z,95003.00
2024-04-25T09:36:05.397Z,95004.00
2024-04-25T09:37:05.403Z,95004.00
2024-04-25T09:38:05.447Z,95003.00
2024-04-25T09:39:05.454Z,95004.00
2024-04-25T09:40:06.677Z,95000.00
2024-04-25T09:41:05.546Z,94997.00
2024-04-25T09:42:05.575Z,94998.00
2024-04-25T09:43:05.619Z,94996.00
2024-04-25T09:44:05.626Z,94995.00
2024-04-25T09:45:05.656Z,94993.00
2024-04-25T09:46:05.745Z,94993.00
2024-04-25T09:47:05.688Z,94991.00
2024-04-25T09:48:05.833Z,94993.00
2024-04-25T09:49:05.752Z,94992.00
2024-04-25T09:50:05.769Z,94988.00
2024-04-25T09:51:05.799Z,94989.00
2024-04-25T09:52:05.816Z,94985.00
2024-04-25T09:53:05.836Z,94984.00
2024-04-25T09:54:05.905Z,94983.00
2024-04-25T09:55:05.955Z,94983.00
2024-04-25T09:56:06.016Z,94983.00
2024-04-25T09:57:06.109Z,94983.00
2024-04-25T09:58:06.151Z,94981.00
2024-04-25T09:59:06.414Z,94976.00
2024-04-25T10:00:06.241Z,94979.00
2024-04-25T10:01:06.343Z,94981.00
2024-04-25T10:02:06.406Z,94980.00
2024-04-25T10:03:06.414Z,94981.00
2024-04-25T10:04:06.537Z,94978.00
2024-04-25T10:05:06.596Z,94978.00
2024-04-25T10:06:06.602Z,94978.00
2024-04-25T10:07:06.636Z,94977.00
2024-04-25T10:08:06.695Z,94978.00
2024-04-25T10:09:06.757Z,94977.00
2024-04-25T10:10:06.805Z,94980.00
2024-04-25T10:11:09.893Z,94980.00
2024-04-25T10:12:06.951Z,94976.00
2024-04-25T10:13:06.864Z,94970.00
2024-04-25T10:14:06.852Z,94973.00
2024-04-25T10:15:06.862Z,94969.00
2024-04-25T10:16:06.906Z,94969.00
2024-04-25T10:17:06.873Z,94969.00
2024-04-25T10:18:06.973Z,94968.00
2024-04-25T10:19:06.976Z,94967.00
2024-04-25T10:20:06.909Z,94967.00
2024-04-25T10:21:06.860Z,94964.00
2024-04-25T10:22:06.863Z,94968.00
2024-04-25T10:23:06.886Z,94966.00
2024-04-25T10:24:06.888Z,94969.00
2024-04-25T10:25:06.870Z,94971.00
2024-04-25T10:26:06.861Z,94966.00
2024-04-25T10:27:06.865Z,94967.00
2024-04-25T10:28:06.885Z,94969.00
2024-04-25T10:29:06.966Z,94967.00
2024-04-25T10:30:07.010Z,94971.00
2024-04-25T10:31:06.873Z,94966.00
2024-04-25T10:32:06.942Z,94970.00
2024-04-25T10:33:07.010Z,94975.00
2024-04-25T10:35:06.887Z,94973.00
2024-04-25T10:36:06.975Z,94971.00
2024-04-25T10:37:06.890Z,94970.00
2024-04-25T10:38:06.920Z,94973.00
2024-04-25T10:40:06.922Z,94974.00
2024-04-25T10:41:06.937Z,94971.00
2024-04-25T10:42:06.935Z,94971.00
2024-04-25T10:43:06.922Z,94969.00
2024-04-25T10:44:06.910Z,94969.00
2024-04-25T10:45:06.886Z,94966.00
2024-04-25T10:46:06.890Z,94965.00
2024-04-25T10:47:06.899Z,94967.00
2024-04-25T10:48:07.091Z,94966.00
2024-04-25T10:49:07.033Z,94964.00
2024-04-25T10:50:06.945Z,94962.00
2024-04-25T10:51:06.884Z,94963.00
2024-04-25T10:52:06.887Z,94960.00
2024-04-25T10:53:06.904Z,94964.00
2024-04-25T10:54:06.933Z,94965.00
2024-04-25T10:55:06.900Z,94965.00
2024-04-25T10:56:06.919Z,94967.00
2024-04-25T10:57:06.905Z,94968.00
2024-04-25T10:58:06.927Z,94968.00
2024-04-25T10:59:06.915Z,94968.00
2024-04-25T11:00:06.919Z,94965.00
2024-04-25T11:01:06.958Z,94967.00
2024-04-25T11:02:06.972Z,94966.00
2024-04-25T11:03:07.035Z,94965.00
2024-04-25T11:04:06.919Z,94964.00
2024-04-25T11:05:06.912Z,94961.00
2024-04-25T11:06:06.912Z,94962.00
2024-04-25T11:07:07.458Z,94961.00
2024-04-25T11:08:07.110Z,94960.00
2024-04-25T11:09:07.135Z,94960.00
2024-04-25T11:10:07.214Z,94959.00
2024-04-25T11:11:07.297Z,94958.00
2024-04-25T11:12:09.980Z,94961.00
2024-04-25T11:13:07.380Z,94959.00
2024-04-25T11:14:07.397Z,94957.00
2024-04-25T11:15:07.394Z,94958.00
2024-04-25T11:16:07.406Z,94956.00
2024-04-25T11:17:07.382Z,94953.00
2024-04-25T11:18:13.224Z,94956.00
2024-04-25T11:19:14.338Z,94956.00
2024-04-25T11:20:08.565Z,94953.00
2024-04-25T11:21:07.533Z,94954.00
2024-04-25T11:22:07.508Z,94951.00
2024-04-25T11:23:07.535Z,94949.00
2024-04-25T11:24:07.562Z,94949.00
2024-04-25T11:25:07.433Z,94947.00
2024-04-25T11:26:07.451Z,94947.00
2024-04-25T11:27:07.431Z,94946.00
2024-04-25T11:28:07.443Z,94947.00
2024-04-25T11:29:07.434Z,94946.00
2024-04-25T11:30:07.443Z,94945.00
2024-04-25T11:31:07.436Z,94945.00
2024-04-25T11:32:07.472Z,94941.00
2024-04-25T11:33:07.535Z,94941.00
2024-04-25T11:34:07.481Z,94942.00
2024-04-25T11:35:07.435Z,94938.00
2024-04-25T11:36:07.456Z,94937.00
2024-04-25T11:37:07.449Z,94937.00
2024-04-25T11:38:07.480Z,94935.00
2024-04-25T11:39:07.527Z,94935.00
2024-04-25T11:40:07.636Z,94932.00
2024-04-25T11:41:07.725Z,94933.00
2024-04-25T11:42:07.828Z,94933.00
2024-04-25T11:43:07.915Z,94933.00
2024-04-25T11:44:07.985Z,94933.00
2024-04-25T11:45:08.082Z,94931.00
2024-04-25T11:46:08.178Z,94932.00
2024-04-25T11:47:08.353Z,94929.00
2024-04-25T11:48:08.566Z,94931.00